sensor_id;sensor_type;location;lat;lon;timestamp;P1;durP1;ratioP1;P2;durP2;ratioP2
42632;SDS011;28261;53.304;-6.284;2022-07-05T00:00:05;11.55;;;2.10;;
42632;SDS011;28261;53.304;-6.284;2022-07-05T00:02:13;17.55;;;2.40;;
42632;SDS011;28261;53.304;-6.284;2022-07-05T00:04:19;17.58;;;2.72;;
42632;SDS011;28261;53.304;-6.284;2022-07-05T00:06:24;10.07;;;1.70;;
42632;SDS011;28261;53.304;-6.284;2022-07-05T00:08:28;11.35;;;1.80;;
42632;SDS011;28261;53.304;-6.284;2022-07-05T00:10:34;17.13;;;2.15;;
42632;SDS011;28261;53.304;-6.284;2022-07-05T00:12:40;13.25;;;1.85;;
42632;SDS011;28261;53.304;-6.284;2022-07-05T00:14:45;11.73;;;1.85;;
42632;SDS011;28261;53.304;-6.284;2022-07-05T00:16:52;12.35;;;1.85;;
42632;SDS011;28261;53.304;-6.284;2022-07-05T00:18:56;15.35;;;1.88;;
42632;SDS011;28261;53.304;-6.284;2022-07-05T00:21:00;13.05;;;2.13;;
42632;SDS011;28261;53.304;-6.284;2022-07-05T00:23:05;12.43;;;1.75;;
42632;SDS011;28261;53.304;-6.284;2022-07-05T00:25:09;10.23;;;1.70;;
42632;SDS011;28261;53.304;-6.284;2022-07-05T00:27:15;10.70;;;1.92;;
42632;SDS011;28261;53.304;-6.284;2022-07-05T00:29:19;15.52;;;2.15;;
42632;SDS011;28261;53.304;-6.284;2022-07-05T00:31:24;14.75;;;1.83;;
42632;SDS011;28261;53.304;-6.284;2022-07-05T00:33:28;14.35;;;2.17;;
42632;SDS011;28261;53.304;-6.284;2022-07-05T00:35:32;16.60;;;1.70;;
42632;SDS011;28261;53.304;-6.284;2022-07-05T00:37:37;14.52;;;1.90;;
42632;SDS011;28261;53.304;-6.284;2022-07-05T00:39:41;15.15;;;2.03;;
42632;SDS011;28261;53.304;-6.284;2022-07-05T00:41:47;12.63;;;1.63;;
42632;SDS011;28261;53.304;-6.284;2022-07-05T00:43:53;10.13;;;1.88;;
42632;SDS011;28261;53.304;-6.284;2022-07-05T00:45:59;13.60;;;2.22;;
42632;SDS011;28261;53.304;-6.284;2022-07-05T00:48:03;19.95;;;1.77;;
42632;SDS011;28261;53.304;-6.284;2022-07-05T00:50:08;16.02;;;1.90;;
42632;SDS011;28261;53.304;-6.284;2022-07-05T00:52:13;17.10;;;2.55;;
42632;SDS011;28261;53.304;-6.284;2022-07-05T00:54:21;19.45;;;2.58;;
42632;SDS011;28261;53.304;-6.284;2022-07-05T00:56:25;15.50;;;1.80;;
42632;SDS011;28261;53.304;-6.284;2022-07-05T00:58:30;18.20;;;2.20;;
42632;SDS011;28261;53.304;-6.284;2022-07-05T01:00:37;13.35;;;1.88;;
42632;SDS011;28261;53.304;-6.284;2022-07-05T01:02:41;15.13;;;1.80;;
42632;SDS011;28261;53.304;-6.284;2022-07-05T01:04:46;14.70;;;2.00;;
42632;SDS011;28261;53.304;-6.284;2022-07-05T01:06:52;14.05;;;2.40;;
42632;SDS011;28261;53.304;-6.284;2022-07-05T01:08:57;11.88;;;1.83;;
42632;SDS011;28261;53.304;-6.284;2022-07-05T01:11:02;10.57;;;1.83;;
42632;SDS011;28261;53.304;-6.284;2022-07-05T01:13:06;8.85;;;1.70;;
42632;SDS011;28261;53.304;-6.284;2022-07-05T01:15:12;12.18;;;1.75;;
42632;SDS011;28261;53.304;-6.284;2022-07-05T01:17:18;14.68;;;1.98;;
42632;SDS011;28261;53.304;-6.284;2022-07-05T01:19:23;10.15;;;1.77;;
42632;SDS011;28261;53.304;-6.284;2022-07-05T01:21:28;10.40;;;2.30;;
42632;SDS011;28261;53.304;-6.284;2022-07-05T01:23:35;16.38;;;2.17;;
42632;SDS011;28261;53.304;-6.284;2022-07-05T01:25:40;17.45;;;2.00;;
42632;SDS011;28261;53.304;-6.284;2022-07-05T01:27:45;12.43;;;2.50;;
42632;SDS011;28261;53.304;-6.284;2022-07-05T01:29:50;8.45;;;2.00;;
42632;SDS011;28261;53.304;-6.284;2022-07-05T01:31:55;13.10;;;2.35;;
42632;SDS011;28261;53.304;-6.284;2022-07-05T01:33:59;11.35;;;2.05;;
42632;SDS011;28261;53.304;-6.284;2022-07-05T01:36:03;10.82;;;2.10;;
42632;SDS011;28261;53.304;-6.284;2022-07-05T01:38:09;12.32;;;2.15;;
42632;SDS011;28261;53.304;-6.284;2022-07-05T01:40:16;10.55;;;2.20;;
42632;SDS011;28261;53.304;-6.284;2022-07-05T01:42:21;10.88;;;3.03;;
42632;SDS011;28261;53.304;-6.284;2022-07-05T01:44:25;9.35;;;2.50;;
42632;SDS011;28261;53.304;-6.284;2022-07-05T01:46:29;9.48;;;2.47;;
42632;SDS011;28261;53.304;-6.284;2022-07-05T01:48:37;9.55;;;2.20;;
42632;SDS011;28261;53.304;-6.284;2022-07-05T01:50:43;11.65;;;3.20;;
42632;SDS011;28261;53.304;-6.284;2022-07-05T01:52:49;9.43;;;2.35;;
42632;SDS011;28261;53.304;-6.284;2022-07-05T01:54:54;11.13;;;2.40;;
42632;SDS011;28261;53.304;-6.284;2022-07-05T01:57:00;13.13;;;2.80;;
42632;SDS011;28261;53.304;-6.284;2022-07-05T01:59:03;6.47;;;2.00;;
42632;SDS011;28261;53.304;-6.284;2022-07-05T02:01:08;11.63;;;2.67;;
42632;SDS011;28261;53.304;-6.284;2022-07-05T02:03:12;8.80;;;2.53;;
42632;SDS011;28261;53.304;-6.284;2022-07-05T02:05:34;14.48;;;2.63;;
42632;SDS011;28261;53.304;-6.284;2022-07-05T02:07:45;12.63;;;2.17;;
42632;SDS011;28261;53.304;-6.284;2022-07-05T02:09:51;9.00;;;2.28;;
42632;SDS011;28261;53.304;-6.284;2022-07-05T02:11:55;6.18;;;1.95;;
42632;SDS011;28261;53.304;-6.284;2022-07-05T02:14:00;8.77;;;1.80;;
42632;SDS011;28261;53.304;-6.284;2022-07-05T02:16:07;8.68;;;1.58;;
42632;SDS011;28261;53.304;-6.284;2022-07-05T02:18:11;8.95;;;1.90;;
42632;SDS011;28261;53.304;-6.284;2022-07-05T02:20:16;5.22;;;1.95;;
42632;SDS011;28261;53.304;-6.284;2022-07-05T02:22:20;5.00;;;1.35;;
42632;SDS011;28261;53.304;-6.284;2022-07-05T02:24:24;6.50;;;1.92;;
42632;SDS011;28261;53.304;-6.284;2022-07-05T02:26:35;5.10;;;1.38;;
42632;SDS011;28261;53.304;-6.284;2022-07-05T02:28:39;2.97;;;1.25;;
42632;SDS011;28261;53.304;-6.284;2022-07-05T02:30:47;4.97;;;1.45;;
42632;SDS011;28261;53.304;-6.284;2022-07-05T02:32:51;4.75;;;1.50;;
42632;SDS011;28261;53.304;-6.284;2022-07-05T02:34:55;4.22;;;1.30;;
42632;SDS011;28261;53.304;-6.284;2022-07-05T02:36:58;3.90;;;1.50;;
42632;SDS011;28261;53.304;-6.284;2022-07-05T02:39:02;4.95;;;1.30;;
42632;SDS011;28261;53.304;-6.284;2022-07-05T02:41:08;3.97;;;1.63;;
42632;SDS011;28261;53.304;-6.284;2022-07-05T02:43:15;7.85;;;1.52;;
42632;SDS011;28261;53.304;-6.284;2022-07-05T02:45:20;3.55;;;1.67;;
42632;SDS011;28261;53.304;-6.284;2022-07-05T02:47:31;2.78;;;1.30;;
42632;SDS011;28261;53.304;-6.284;2022-07-05T02:49:36;5.00;;;1.70;;
42632;SDS011;28261;53.304;-6.284;2022-07-05T02:51:41;5.43;;;1.48;;
42632;SDS011;28261;53.304;-6.284;2022-07-05T02:53:46;5.32;;;1.63;;
42632;SDS011;28261;53.304;-6.284;2022-07-05T02:55:51;5.90;;;1.42;;
42632;SDS011;28261;53.304;-6.284;2022-07-05T02:57:56;5.18;;;1.55;;
42632;SDS011;28261;53.304;-6.284;2022-07-05T03:00:03;3.80;;;1.50;;
42632;SDS011;28261;53.304;-6.284;2022-07-05T03:02:22;3.17;;;1.35;;
42632;SDS011;28261;53.304;-6.284;2022-07-05T03:04:29;5.43;;;1.45;;
42632;SDS011;28261;53.304;-6.284;2022-07-05T03:06:33;5.50;;;1.35;;
42632;SDS011;28261;53.304;-6.284;2022-07-05T03:08:37;3.67;;;1.38;;
42632;SDS011;28261;53.304;-6.284;2022-07-05T03:10:41;1.90;;;1.10;;
42632;SDS011;28261;53.304;-6.284;2022-07-05T03:12:45;5.28;;;1.40;;
42632;SDS011;28261;53.304;-6.284;2022-07-05T03:14:49;3.15;;;1.35;;
42632;SDS011;28261;53.304;-6.284;2022-07-05T03:16:55;3.50;;;1.27;;
42632;SDS011;28261;53.304;-6.284;2022-07-05T03:18:59;4.15;;;1.30;;
42632;SDS011;28261;53.304;-6.284;2022-07-05T03:21:04;6.50;;;1.30;;
42632;SDS011;28261;53.304;-6.284;2022-07-05T03:23:09;3.58;;;1.48;;
42632;SDS011;28261;53.304;-6.284;2022-07-05T03:25:18;2.35;;;1.25;;
42632;SDS011;28261;53.304;-6.284;2022-07-05T03:27:23;3.92;;;1.50;;
42632;SDS011;28261;53.304;-6.284;2022-07-05T03:29:29;4.95;;;1.55;;
42632;SDS011;28261;53.304;-6.284;2022-07-05T03:31:33;3.08;;;1.52;;
42632;SDS011;28261;53.304;-6.284;2022-07-05T03:33:39;2.70;;;1.23;;
42632;SDS011;28261;53.304;-6.284;2022-07-05T03:35:44;2.80;;;1.30;;
42632;SDS011;28261;53.304;-6.284;2022-07-05T03:37:52;2.95;;;1.17;;
42632;SDS011;28261;53.304;-6.284;2022-07-05T03:39:57;4.07;;;1.52;;
42632;SDS011;28261;53.304;-6.284;2022-07-05T03:42:00;3.55;;;1.30;;
42632;SDS011;28261;53.304;-6.284;2022-07-05T03:44:06;4.10;;;1.38;;
42632;SDS011;28261;53.304;-6.284;2022-07-05T03:46:10;4.38;;;1.67;;
42632;SDS011;28261;53.304;-6.284;2022-07-05T03:48:16;4.75;;;1.55;;
42632;SDS011;28261;53.304;-6.284;2022-07-05T03:50:39;3.25;;;1.70;;
42632;SDS011;28261;53.304;-6.284;2022-07-05T03:52:43;3.05;;;1.60;;
42632;SDS011;28261;53.304;-6.284;2022-07-05T03:54:49;2.17;;;1.40;;
42632;SDS011;28261;53.304;-6.284;2022-07-05T03:56:53;3.88;;;1.83;;
42632;SDS011;28261;53.304;-6.284;2022-07-05T03:58:57;4.65;;;2.42;;
42632;SDS011;28261;53.304;-6.284;2022-07-05T04:01:01;5.93;;;1.65;;
42632;SDS011;28261;53.304;-6.284;2022-07-05T04:03:05;4.93;;;1.55;;
42632;SDS011;28261;53.304;-6.284;2022-07-05T04:05:11;6.80;;;1.80;;
42632;SDS011;28261;53.304;-6.284;2022-07-05T04:07:17;3.08;;;1.40;;
42632;SDS011;28261;53.304;-6.284;2022-07-05T04:09:22;3.08;;;1.30;;
42632;SDS011;28261;53.304;-6.284;2022-07-05T04:11:28;3.35;;;1.17;;
42632;SDS011;28261;53.304;-6.284;2022-07-05T04:13:32;4.55;;;1.55;;
42632;SDS011;28261;53.304;-6.284;2022-07-05T04:15:37;2.85;;;1.35;;
42632;SDS011;28261;53.304;-6.284;2022-07-05T04:17:47;2.38;;;1.40;;
42632;SDS011;28261;53.304;-6.284;2022-07-05T04:19:52;3.33;;;1.50;;
42632;SDS011;28261;53.304;-6.284;2022-07-05T04:21:57;3.15;;;1.63;;
42632;SDS011;28261;53.304;-6.284;2022-07-05T04:24:01;2.85;;;1.80;;
42632;SDS011;28261;53.304;-6.284;2022-07-05T04:26:06;4.50;;;1.60;;
42632;SDS011;28261;53.304;-6.284;2022-07-05T04:28:16;5.13;;;1.60;;
42632;SDS011;28261;53.304;-6.284;2022-07-05T04:30:23;3.20;;;1.25;;
42632;SDS011;28261;53.304;-6.284;2022-07-05T04:32:30;3.33;;;1.50;;
42632;SDS011;28261;53.304;-6.284;2022-07-05T04:34:34;4.20;;;1.30;;
42632;SDS011;28261;53.304;-6.284;2022-07-05T04:36:38;3.63;;;1.58;;
42632;SDS011;28261;53.304;-6.284;2022-07-05T04:38:44;1.60;;;1.33;;
42632;SDS011;28261;53.304;-6.284;2022-07-05T04:40:50;2.63;;;1.30;;
42632;SDS011;28261;53.304;-6.284;2022-07-05T04:42:54;2.47;;;1.33;;
42632;SDS011;28261;53.304;-6.284;2022-07-05T04:45:01;4.10;;;1.58;;
42632;SDS011;28261;53.304;-6.284;2022-07-05T04:47:06;2.45;;;1.20;;
42632;SDS011;28261;53.304;-6.284;2022-07-05T04:49:10;1.52;;;1.30;;
42632;SDS011;28261;53.304;-6.284;2022-07-05T04:51:15;4.53;;;1.50;;
42632;SDS011;28261;53.304;-6.284;2022-07-05T04:53:20;4.05;;;1.38;;
42632;SDS011;28261;53.304;-6.284;2022-07-05T04:55:27;2.00;;;1.10;;
42632;SDS011;28261;53.304;-6.284;2022-07-05T04:57:36;2.00;;;1.20;;
42632;SDS011;28261;53.304;-6.284;2022-07-05T04:59:41;2.88;;;1.10;;
42632;SDS011;28261;53.304;-6.284;2022-07-05T05:01:48;1.77;;;1.00;;
42632;SDS011;28261;53.304;-6.284;2022-07-05T05:03:52;1.55;;;1.10;;
42632;SDS011;28261;53.304;-6.284;2022-07-05T05:05:56;1.40;;;1.00;;
42632;SDS011;28261;53.304;-6.284;2022-07-05T05:08:01;1.67;;;1.05;;
42632;SDS011;28261;53.304;-6.284;2022-07-05T05:10:05;2.33;;;1.20;;
42632;SDS011;28261;53.304;-6.284;2022-07-05T05:12:10;1.55;;;1.17;;
42632;SDS011;28261;53.304;-6.284;2022-07-05T05:14:15;4.10;;;1.60;;
42632;SDS011;28261;53.304;-6.284;2022-07-05T05:16:19;2.72;;;1.48;;
42632;SDS011;28261;53.304;-6.284;2022-07-05T05:18:26;2.42;;;1.38;;
42632;SDS011;28261;53.304;-6.284;2022-07-05T05:20:30;3.58;;;1.20;;
42632;SDS011;28261;53.304;-6.284;2022-07-05T05:22:41;2.45;;;1.40;;
42632;SDS011;28261;53.304;-6.284;2022-07-05T05:24:46;2.63;;;1.88;;
42632;SDS011;28261;53.304;-6.284;2022-07-05T05:26:50;2.80;;;1.55;;
42632;SDS011;28261;53.304;-6.284;2022-07-05T05:28:54;3.95;;;1.60;;
42632;SDS011;28261;53.304;-6.284;2022-07-05T05:30:59;5.72;;;1.60;;
42632;SDS011;28261;53.304;-6.284;2022-07-05T05:33:03;3.25;;;1.23;;
42632;SDS011;28261;53.304;-6.284;2022-07-05T05:35:09;1.25;;;1.00;;
42632;SDS011;28261;53.304;-6.284;2022-07-05T05:37:13;5.18;;;1.50;;
42632;SDS011;28261;53.304;-6.284;2022-07-05T05:39:17;7.22;;;1.55;;
42632;SDS011;28261;53.304;-6.284;2022-07-05T05:41:21;2.85;;;1.08;;
42632;SDS011;28261;53.304;-6.284;2022-07-05T05:43:26;2.15;;;1.27;;
42632;SDS011;28261;53.304;-6.284;2022-07-05T05:45:30;3.17;;;1.10;;
42632;SDS011;28261;53.304;-6.284;2022-07-05T05:47:42;3.90;;;1.30;;
42632;SDS011;28261;53.304;-6.284;2022-07-05T05:49:47;1.33;;;1.05;;
42632;SDS011;28261;53.304;-6.284;2022-07-05T05:51:53;1.45;;;1.00;;
42632;SDS011;28261;53.304;-6.284;2022-07-05T05:53:57;1.35;;;0.98;;
42632;SDS011;28261;53.304;-6.284;2022-07-05T05:56:02;1.10;;;0.82;;
42632;SDS011;28261;53.304;-6.284;2022-07-05T05:58:13;1.17;;;1.08;;
42632;SDS011;28261;53.304;-6.284;2022-07-05T06:00:18;0.98;;;0.80;;
42632;SDS011;28261;53.304;-6.284;2022-07-05T06:02:24;0.98;;;0.90;;
42632;SDS011;28261;53.304;-6.284;2022-07-05T06:04:29;1.67;;;0.70;;
42632;SDS011;28261;53.304;-6.284;2022-07-05T06:06:33;2.65;;;0.88;;
42632;SDS011;28261;53.304;-6.284;2022-07-05T06:08:39;0.68;;;0.65;;
42632;SDS011;28261;53.304;-6.284;2022-07-05T06:10:44;0.70;;;0.70;;
42632;SDS011;28261;53.304;-6.284;2022-07-05T06:12:57;0.88;;;0.60;;
42632;SDS011;28261;53.304;-6.284;2022-07-05T06:15:04;2.30;;;0.70;;
42632;SDS011;28261;53.304;-6.284;2022-07-05T06:17:09;3.47;;;0.68;;
42632;SDS011;28261;53.304;-6.284;2022-07-05T06:19:14;0.50;;;0.50;;
42632;SDS011;28261;53.304;-6.284;2022-07-05T06:21:18;2.92;;;0.68;;
42632;SDS011;28261;53.304;-6.284;2022-07-05T06:23:22;0.85;;;0.50;;
42632;SDS011;28261;53.304;-6.284;2022-07-05T06:25:28;1.88;;;0.50;;
42632;SDS011;28261;53.304;-6.284;2022-07-05T06:27:37;0.55;;;0.40;;
42632;SDS011;28261;53.304;-6.284;2022-07-05T06:29:42;1.05;;;0.65;;
42632;SDS011;28261;53.304;-6.284;2022-07-05T06:31:47;0.98;;;0.40;;
42632;SDS011;28261;53.304;-6.284;2022-07-05T06:33:51;0.88;;;0.40;;
42632;SDS011;28261;53.304;-6.284;2022-07-05T06:35:56;2.28;;;0.50;;
42632;SDS011;28261;53.304;-6.284;2022-07-05T06:38:00;1.10;;;0.40;;
42632;SDS011;28261;53.304;-6.284;2022-07-05T06:40:05;0.50;;;0.50;;
42632;SDS011;28261;53.304;-6.284;2022-07-05T06:42:20;1.67;;;0.35;;
42632;SDS011;28261;53.304;-6.284;2022-07-05T06:44:24;1.00;;;0.30;;
42632;SDS011;28261;53.304;-6.284;2022-07-05T06:46:37;1.13;;;0.40;;
42632;SDS011;28261;53.304;-6.284;2022-07-05T06:48:41;0.88;;;0.50;;
42632;SDS011;28261;53.304;-6.284;2022-07-05T06:50:51;2.17;;;0.30;;
42632;SDS011;28261;53.304;-6.284;2022-07-05T06:52:56;1.08;;;0.40;;
42632;SDS011;28261;53.304;-6.284;2022-07-05T06:55:03;0.30;;;0.22;;
42632;SDS011;28261;53.304;-6.284;2022-07-05T06:57:08;1.30;;;0.40;;
42632;SDS011;28261;53.304;-6.284;2022-07-05T06:59:34;0.75;;;0.40;;
42632;SDS011;28261;53.304;-6.284;2022-07-05T07:01:58;3.85;;;0.50;;
42632;SDS011;28261;53.304;-6.284;2022-07-05T07:06:35;0.73;;;0.40;;
42632;SDS011;28261;53.304;-6.284;2022-07-05T07:08:38;0.28;;;0.25;;
42632;SDS011;28261;53.304;-6.284;2022-07-05T07:10:59;11.38;;;0.50;;
42632;SDS011;28261;53.304;-6.284;2022-07-05T07:13:03;0.80;;;0.45;;
42632;SDS011;28261;53.304;-6.284;2022-07-05T07:15:09;1.45;;;0.40;;
42632;SDS011;28261;53.304;-6.284;2022-07-05T07:17:13;1.83;;;0.43;;
42632;SDS011;28261;53.304;-6.284;2022-07-05T07:19:18;2.42;;;0.40;;
42632;SDS011;28261;53.304;-6.284;2022-07-05T07:21:22;3.05;;;0.40;;
42632;SDS011;28261;53.304;-6.284;2022-07-05T07:23:26;0.57;;;0.40;;
42632;SDS011;28261;53.304;-6.284;2022-07-05T07:25:30;3.58;;;0.65;;
42632;SDS011;28261;53.304;-6.284;2022-07-05T07:27:40;8.35;;;0.70;;
42632;SDS011;28261;53.304;-6.284;2022-07-05T07:29:45;3.42;;;0.70;;
42632;SDS011;28261;53.304;-6.284;2022-07-05T07:31:51;1.10;;;0.32;;
42632;SDS011;28261;53.304;-6.284;2022-07-05T07:33:55;1.05;;;0.40;;
42632;SDS011;28261;53.304;-6.284;2022-07-05T07:35:59;1.42;;;0.30;;
42632;SDS011;28261;53.304;-6.284;2022-07-05T07:38:02;0.50;;;0.50;;
42632;SDS011;28261;53.304;-6.284;2022-07-05T07:40:06;0.88;;;0.68;;
42632;SDS011;28261;53.304;-6.284;2022-07-05T07:42:11;0.57;;;0.30;;
42632;SDS011;28261;53.304;-6.284;2022-07-05T07:44:14;0.50;;;0.38;;
42632;SDS011;28261;53.304;-6.284;2022-07-05T07:46:19;1.58;;;0.30;;
42632;SDS011;28261;53.304;-6.284;2022-07-05T07:48:25;0.20;;;0.20;;
42632;SDS011;28261;53.304;-6.284;2022-07-05T07:50:30;0.63;;;0.30;;
42632;SDS011;28261;53.304;-6.284;2022-07-05T07:52:35;0.20;;;0.20;;
42632;SDS011;28261;53.304;-6.284;2022-07-05T07:54:39;0.40;;;0.30;;
42632;SDS011;28261;53.304;-6.284;2022-07-05T07:56:44;0.30;;;0.30;;
42632;SDS011;28261;53.304;-6.284;2022-07-05T07:58:48;0.22;;;0.22;;
42632;SDS011;28261;53.304;-6.284;2022-07-05T08:00:52;0.22;;;0.22;;
42632;SDS011;28261;53.304;-6.284;2022-07-05T08:02:57;0.38;;;0.30;;
42632;SDS011;28261;53.304;-6.284;2022-07-05T08:05:03;0.88;;;0.35;;
42632;SDS011;28261;53.304;-6.284;2022-07-05T08:07:08;0.90;;;0.30;;
42632;SDS011;28261;53.304;-6.284;2022-07-05T08:09:12;0.20;;;0.20;;
42632;SDS011;28261;53.304;-6.284;2022-07-05T08:11:18;1.27;;;0.50;;
42632;SDS011;28261;53.304;-6.284;2022-07-05T08:13:23;0.38;;;0.28;;
42632;SDS011;28261;53.304;-6.284;2022-07-05T08:15:27;0.35;;;0.35;;
42632;SDS011;28261;53.304;-6.284;2022-07-05T08:17:32;1.85;;;0.30;;
42632;SDS011;28261;53.304;-6.284;2022-07-05T08:19:36;2.50;;;0.45;;
42632;SDS011;28261;53.304;-6.284;2022-07-05T08:22:00;0.32;;;0.30;;
42632;SDS011;28261;53.304;-6.284;2022-07-05T08:24:04;1.70;;;0.60;;
42632;SDS011;28261;53.304;-6.284;2022-07-05T08:26:10;0.45;;;0.40;;
42632;SDS011;28261;53.304;-6.284;2022-07-05T08:28:14;0.80;;;0.35;;
42632;SDS011;28261;53.304;-6.284;2022-07-05T08:30:18;0.63;;;0.45;;
42632;SDS011;28261;53.304;-6.284;2022-07-05T08:32:22;0.65;;;0.40;;
42632;SDS011;28261;53.304;-6.284;2022-07-05T08:34:27;0.40;;;0.35;;
42632;SDS011;28261;53.304;-6.284;2022-07-05T08:36:31;0.73;;;0.30;;
42632;SDS011;28261;53.304;-6.284;2022-07-05T08:38:38;0.75;;;0.38;;
42632;SDS011;28261;53.304;-6.284;2022-07-05T08:40:44;1.23;;;0.40;;
42632;SDS011;28261;53.304;-6.284;2022-07-05T08:42:54;1.10;;;0.50;;
42632;SDS011;28261;53.304;-6.284;2022-07-05T08:45:01;0.40;;;0.40;;
42632;SDS011;28261;53.304;-6.284;2022-07-05T08:47:08;0.85;;;0.40;;
42632;SDS011;28261;53.304;-6.284;2022-07-05T08:49:13;0.70;;;0.40;;
42632;SDS011;28261;53.304;-6.284;2022-07-05T08:51:18;0.65;;;0.40;;
42632;SDS011;28261;53.304;-6.284;2022-07-05T08:53:24;0.57;;;0.40;;
42632;SDS011;28261;53.304;-6.284;2022-07-05T08:55:31;1.27;;;0.73;;
42632;SDS011;28261;53.304;-6.284;2022-07-05T08:57:36;1.13;;;0.30;;
42632;SDS011;28261;53.304;-6.284;2022-07-05T08:59:41;2.47;;;0.40;;
42632;SDS011;28261;53.304;-6.284;2022-07-05T09:01:45;1.20;;;0.50;;
42632;SDS011;28261;53.304;-6.284;2022-07-05T09:03:51;0.40;;;0.30;;
42632;SDS011;28261;53.304;-6.284;2022-07-05T09:05:56;0.68;;;0.40;;
42632;SDS011;28261;53.304;-6.284;2022-07-05T09:08:01;1.40;;;0.40;;
42632;SDS011;28261;53.304;-6.284;2022-07-05T09:10:08;1.60;;;0.98;;
42632;SDS011;28261;53.304;-6.284;2022-07-05T09:12:18;1.00;;;0.40;;
42632;SDS011;28261;53.304;-6.284;2022-07-05T09:14:27;1.30;;;0.50;;
42632;SDS011;28261;53.304;-6.284;2022-07-05T09:16:31;0.68;;;0.40;;
42632;SDS011;28261;53.304;-6.284;2022-07-05T09:18:39;0.80;;;0.60;;
42632;SDS011;28261;53.304;-6.284;2022-07-05T09:20:44;1.98;;;0.30;;
42632;SDS011;28261;53.304;-6.284;2022-07-05T09:22:53;0.38;;;0.38;;
42632;SDS011;28261;53.304;-6.284;2022-07-05T09:24:58;0.73;;;0.40;;
42632;SDS011;28261;53.304;-6.284;2022-07-05T09:27:18;0.57;;;0.35;;
42632;SDS011;28261;53.304;-6.284;2022-07-05T09:29:23;0.22;;;0.22;;
42632;SDS011;28261;53.304;-6.284;2022-07-05T09:31:46;0.30;;;0.30;;
42632;SDS011;28261;53.304;-6.284;2022-07-05T09:33:52;0.30;;;0.30;;
42632;SDS011;28261;53.304;-6.284;2022-07-05T09:35:56;0.40;;;0.30;;
42632;SDS011;28261;53.304;-6.284;2022-07-05T09:38:02;0.90;;;0.50;;
42632;SDS011;28261;53.304;-6.284;2022-07-05T09:40:07;0.50;;;0.50;;
42632;SDS011;28261;53.304;-6.284;2022-07-05T09:42:22;4.43;;;0.45;;
42632;SDS011;28261;53.304;-6.284;2022-07-05T09:44:27;1.15;;;0.50;;
42632;SDS011;28261;53.304;-6.284;2022-07-05T09:46:32;1.17;;;0.52;;
42632;SDS011;28261;53.304;-6.284;2022-07-05T09:48:37;1.00;;;0.52;;
42632;SDS011;28261;53.304;-6.284;2022-07-05T09:51:03;1.10;;;0.57;;
42632;SDS011;28261;53.304;-6.284;2022-07-05T09:53:32;0.63;;;0.50;;
42632;SDS011;28261;53.304;-6.284;2022-07-05T09:56:00;0.75;;;0.60;;
42632;SDS011;28261;53.304;-6.284;2022-07-05T09:58:06;1.40;;;0.68;;
42632;SDS011;28261;53.304;-6.284;2022-07-05T10:00:11;0.57;;;0.52;;
42632;SDS011;28261;53.304;-6.284;2022-07-05T10:02:22;0.50;;;0.50;;
42632;SDS011;28261;53.304;-6.284;2022-07-05T10:04:37;0.70;;;0.60;;
42632;SDS011;28261;53.304;-6.284;2022-07-05T10:06:42;1.88;;;0.55;;
42632;SDS011;28261;53.304;-6.284;2022-07-05T10:08:48;0.40;;;0.30;;
42632;SDS011;28261;53.304;-6.284;2022-07-05T10:10:53;0.60;;;0.52;;
42632;SDS011;28261;53.304;-6.284;2022-07-05T10:12:58;1.85;;;0.47;;
42632;SDS011;28261;53.304;-6.284;2022-07-05T10:15:07;1.00;;;0.50;;
42632;SDS011;28261;53.304;-6.284;2022-07-05T10:17:13;1.95;;;0.60;;
42632;SDS011;28261;53.304;-6.284;2022-07-05T10:19:19;2.20;;;0.60;;
42632;SDS011;28261;53.304;-6.284;2022-07-05T10:21:27;1.02;;;0.63;;
42632;SDS011;28261;53.304;-6.284;2022-07-05T10:23:52;1.08;;;0.60;;
42632;SDS011;28261;53.304;-6.284;2022-07-05T10:25:58;1.30;;;0.70;;
42632;SDS011;28261;53.304;-6.284;2022-07-05T10:28:03;0.80;;;0.70;;
42632;SDS011;28261;53.304;-6.284;2022-07-05T10:30:11;0.70;;;0.55;;
42632;SDS011;28261;53.304;-6.284;2022-07-05T10:32:16;3.50;;;0.80;;
42632;SDS011;28261;53.304;-6.284;2022-07-05T10:34:22;1.45;;;0.80;;
42632;SDS011;28261;53.304;-6.284;2022-07-05T10:36:46;1.15;;;0.77;;
42632;SDS011;28261;53.304;-6.284;2022-07-05T10:38:51;3.40;;;0.90;;
42632;SDS011;28261;53.304;-6.284;2022-07-05T10:40:57;0.93;;;0.70;;
42632;SDS011;28261;53.304;-6.284;2022-07-05T10:43:05;1.75;;;0.60;;
42632;SDS011;28261;53.304;-6.284;2022-07-05T10:45:24;0.90;;;0.60;;
42632;SDS011;28261;53.304;-6.284;2022-07-05T10:47:29;6.25;;;0.75;;
42632;SDS011;28261;53.304;-6.284;2022-07-05T10:49:34;0.60;;;0.60;;
42632;SDS011;28261;53.304;-6.284;2022-07-05T10:51:40;0.95;;;0.50;;
42632;SDS011;28261;53.304;-6.284;2022-07-05T10:54:00;1.00;;;0.70;;
42632;SDS011;28261;53.304;-6.284;2022-07-05T10:56:10;0.70;;;0.70;;
42632;SDS011;28261;53.304;-6.284;2022-07-05T11:00:40;0.60;;;0.60;;
42632;SDS011;28261;53.304;-6.284;2022-07-05T11:02:45;0.70;;;0.70;;
42632;SDS011;28261;53.304;-6.284;2022-07-05T11:05:10;0.90;;;0.80;;
42632;SDS011;28261;53.304;-6.284;2022-07-05T11:10:00;0.95;;;0.60;;
42632;SDS011;28261;53.304;-6.284;2022-07-05T11:12:07;1.70;;;0.70;;
42632;SDS011;28261;53.304;-6.284;2022-07-05T11:14:38;1.13;;;0.80;;
42632;SDS011;28261;53.304;-6.284;2022-07-05T11:17:09;9.27;;;0.98;;
42632;SDS011;28261;53.304;-6.284;2022-07-05T11:22:16;1.10;;;0.80;;
42632;SDS011;28261;53.304;-6.284;2022-07-05T11:24:21;1.05;;;0.60;;
42632;SDS011;28261;53.304;-6.284;2022-07-05T11:26:28;1.23;;;0.93;;
42632;SDS011;28261;53.304;-6.284;2022-07-05T11:28:41;2.75;;;1.00;;
42632;SDS011;28261;53.304;-6.284;2022-07-05T11:30:46;0.95;;;0.73;;
42632;SDS011;28261;53.304;-6.284;2022-07-05T11:32:54;1.90;;;0.85;;
42632;SDS011;28261;53.304;-6.284;2022-07-05T11:37:22;0.85;;;0.80;;
42632;SDS011;28261;53.304;-6.284;2022-07-05T11:39:29;1.13;;;0.68;;
42632;SDS011;28261;53.304;-6.284;2022-07-05T11:41:34;1.45;;;0.75;;
42632;SDS011;28261;53.304;-6.284;2022-07-05T11:43:41;2.42;;;0.90;;
42632;SDS011;28261;53.304;-6.284;2022-07-05T11:45:46;2.55;;;1.00;;
42632;SDS011;28261;53.304;-6.284;2022-07-05T11:47:55;0.60;;;0.60;;
42632;SDS011;28261;53.304;-6.284;2022-07-05T11:50:01;1.00;;;0.70;;
42632;SDS011;28261;53.304;-6.284;2022-07-05T11:52:24;3.42;;;0.90;;
42632;SDS011;28261;53.304;-6.284;2022-07-05T11:54:29;2.63;;;0.80;;
42632;SDS011;28261;53.304;-6.284;2022-07-05T11:56:36;1.67;;;0.70;;
42632;SDS011;28261;53.304;-6.284;2022-07-05T11:58:41;1.30;;;0.80;;
42632;SDS011;28261;53.304;-6.284;2022-07-05T12:00:52;1.25;;;0.73;;
42632;SDS011;28261;53.304;-6.284;2022-07-05T12:02:59;4.22;;;0.80;;
42632;SDS011;28261;53.304;-6.284;2022-07-05T12:05:04;1.95;;;0.90;;
42632;SDS011;28261;53.304;-6.284;2022-07-05T12:07:08;1.90;;;0.70;;
42632;SDS011;28261;53.304;-6.284;2022-07-05T12:09:14;0.93;;;0.65;;
42632;SDS011;28261;53.304;-6.284;2022-07-05T12:11:25;2.03;;;0.93;;
42632;SDS011;28261;53.304;-6.284;2022-07-05T12:13:47;1.35;;;1.02;;
42632;SDS011;28261;53.304;-6.284;2022-07-05T12:15:58;1.88;;;0.93;;
42632;SDS011;28261;53.304;-6.284;2022-07-05T12:18:04;1.27;;;0.80;;
42632;SDS011;28261;53.304;-6.284;2022-07-05T12:20:09;1.08;;;0.98;;
42632;SDS011;28261;53.304;-6.284;2022-07-05T12:22:15;3.88;;;1.00;;
42632;SDS011;28261;53.304;-6.284;2022-07-05T12:24:33;1.38;;;0.95;;
42632;SDS011;28261;53.304;-6.284;2022-07-05T12:26:38;0.82;;;0.77;;
42632;SDS011;28261;53.304;-6.284;2022-07-05T12:28:43;0.93;;;0.80;;
42632;SDS011;28261;53.304;-6.284;2022-07-05T12:30:49;1.80;;;0.90;;
42632;SDS011;28261;53.304;-6.284;2022-07-05T12:32:54;1.10;;;0.95;;
42632;SDS011;28261;53.304;-6.284;2022-07-05T12:35:01;1.70;;;1.20;;
42632;SDS011;28261;53.304;-6.284;2022-07-05T12:37:08;1.60;;;1.05;;
42632;SDS011;28261;53.304;-6.284;2022-07-05T12:39:15;1.52;;;0.90;;
42632;SDS011;28261;53.304;-6.284;2022-07-05T12:41:22;3.10;;;1.08;;
42632;SDS011;28261;53.304;-6.284;2022-07-05T12:43:26;1.23;;;1.08;;